createdAt,value
2022-09-15T00:01:08.039Z,1.58
2022-09-15T00:03:38.766Z,1.52
2022-09-15T00:06:09.685Z,1.67
2022-09-15T00:08:40.477Z,1.58
2022-09-15T00:11:16.241Z,1.42
2022-09-15T00:13:47.222Z,2.03
2022-09-15T00:16:19.869Z,1.80
2022-09-15T00:18:50.389Z,1.60
2022-09-15T00:21:26.625Z,1.52
2022-09-15T00:23:57.314Z,1.67
2022-09-15T00:26:29.143Z,1.35
2022-09-15T00:29:00.372Z,1.27
2022-09-15T00:31:31.963Z,1.45
2022-09-15T00:34:03.002Z,1.48
2022-09-15T00:36:33.575Z,1.20
2022-09-15T00:39:04.147Z,1.13
2022-09-15T00:41:34.597Z,1.20
2022-09-15T00:44:36.336Z,1.70
2022-09-15T00:47:19.328Z,1.50
2022-09-15T00:49:58.790Z,1.55
2022-09-15T00:52:36.274Z,1.55
2022-09-15T00:55:24.202Z,1.70
2022-09-15T00:57:57.340Z,1.65
2022-09-15T01:00:28.586Z,1.60
2022-09-15T01:02:59.317Z,2.42
2022-09-15T01:05:34.870Z,3.67
2022-09-15T01:08:09.184Z,2.88
2022-09-15T01:10:41.375Z,1.98
2022-09-15T01:13:13.585Z,1.77
2022-09-15T01:19:43.661Z,1.05
2022-09-15T01:22:38.658Z,1.40
2022-09-15T01:25:28.053Z,0.85
2022-09-15T01:28:26.248Z,1.17
2022-09-15T01:31:12.327Z,1.17
2022-09-15T01:34:06.368Z,3.95
2022-09-15T01:36:44.473Z,1.67
2022-09-15T01:39:20.976Z,1.58
2022-09-15T01:44:32.515Z,1.73
2022-09-15T01:47:08.179Z,1.30
2022-09-15T01:50:03.008Z,1.07
2022-09-15T01:52:33.876Z,1.25
2022-09-15T01:55:18.432Z,1.13
2022-09-15T01:57:49.156Z,1.30
2022-09-15T02:00:19.448Z,1.73
2022-09-15T02:03:17.435Z,1.30
2022-09-15T02:05:59.144Z,1.20
2022-09-15T02:08:40.088Z,1.08
2022-09-15T02:11:16.441Z,1.20
2022-09-15T02:13:58.272Z,1.85
2022-09-15T02:16:32.606Z,1.10
2022-09-15T02:19:32.142Z,1.35
2022-09-15T02:22:31.078Z,1.23
2022-09-15T02:25:08.271Z,1.20
2022-09-15T02:27:46.309Z,1.40
2022-09-15T02:30:19.825Z,1.60
2022-09-15T02:33:01.310Z,1.30
2022-09-15T02:35:35.079Z,1.50
2022-09-15T02:38:09.306Z,2.08
2022-09-15T02:40:44.885Z,1.75
2022-09-15T02:43:17.315Z,2.25
2022-09-15T02:45:47.984Z,2.30
2022-09-15T02:48:18.317Z,2.42
2022-09-15T02:50:48.400Z,2.88
2022-09-15T02:53:18.599Z,3.03
2022-09-15T02:55:49.679Z,2.97
2022-09-15T02:58:19.853Z,2.50
2022-09-15T03:00:50.894Z,2.60
2022-09-15T03:03:22.127Z,2.45
2022-09-15T03:05:52.278Z,2.78
2022-09-15T03:08:22.433Z,2.60
2022-09-15T03:10:52.606Z,2.53
2022-09-15T03:13:23.426Z,2.58
2022-09-15T03:15:53.587Z,2.10
2022-09-15T03:18:23.762Z,2.10
2022-09-15T03:20:57.036Z,1.92
2022-09-15T03:23:27.493Z,1.77
2022-09-15T03:25:59.428Z,1.88
2022-09-15T03:28:29.831Z,1.88
2022-09-15T03:30:59.984Z,1.73
2022-09-15T03:33:30.098Z,1.65
2022-09-15T03:36:00.720Z,1.65
2022-09-15T03:38:31.100Z,1.73
2022-09-15T03:41:02.765Z,1.88
2022-09-15T03:43:33.368Z,1.25
2022-09-15T03:46:05.557Z,1.50
2022-09-15T03:48:36.488Z,1.63
2022-09-15T03:51:08.516Z,1.50
2022-09-15T03:53:40.775Z,1.48
2022-09-15T03:56:24.708Z,1.48
2022-09-15T03:58:54.936Z,1.73
2022-09-15T04:01:25.976Z,1.75
2022-09-15T04:03:57.002Z,1.92
2022-09-15T04:06:27.500Z,2.35
2022-09-15T04:09:00.335Z,1.60
2022-09-15T04:11:31.095Z,1.95
2022-09-15T04:14:01.234Z,2.03
2022-09-15T04:16:31.488Z,1.90
2022-09-15T04:19:01.724Z,1.73
2022-09-15T04:21:32.208Z,2.70
2022-09-15T04:24:04.917Z,1.98
2022-09-15T04:26:37.181Z,2.70
2022-09-15T04:29:15.188Z,2.40
2022-09-15T04:31:45.689Z,2.33
2022-09-15T04:34:16.089Z,3.30
2022-09-15T04:36:46.841Z,4.15
2022-09-15T04:39:17.001Z,1.98
2022-09-15T04:41:47.253Z,2.03
2022-09-15T04:44:17.532Z,2.17
2022-09-15T04:46:48.892Z,1.92
2022-09-15T04:49:19.229Z,1.80
2022-09-15T04:51:49.474Z,1.60
2022-09-15T04:54:20.260Z,1.33
2022-09-15T04:56:50.463Z,1.80
2022-09-15T04:59:20.770Z,1.55
2022-09-15T05:01:55.486Z,1.50
2022-09-15T05:04:25.958Z,1.48
2022-09-15T05:06:56.096Z,1.80
2022-09-15T05:09:28.008Z,2.33
2022-09-15T05:11:58.202Z,1.50
2022-09-15T05:14:28.405Z,1.80
2022-09-15T05:16:58.501Z,2.67
2022-09-15T05:19:28.667Z,1.88
2022-09-15T05:21:58.756Z,1.92
2022-09-15T05:24:28.935Z,2.03
2022-09-15T05:26:59.389Z,1.77
2022-09-15T05:29:29.521Z,1.92
2022-09-15T05:31:59.713Z,1.70
2022-09-15T05:34:37.630Z,2.08
2022-09-15T05:37:08.008Z,1.85
2022-09-15T05:39:39.467Z,1.90
2022-09-15T05:42:09.662Z,1.85
2022-09-15T05:44:39.805Z,2.03
2022-09-15T05:47:10.647Z,2.08
2022-09-15T05:49:40.753Z,2.00
2022-09-15T05:52:10.826Z,2.03
2022-09-15T05:54:41.207Z,2.20
2022-09-15T05:57:11.605Z,1.70
2022-09-15T05:59:44.035Z,1.75
2022-09-15T06:02:14.313Z,1.70
2022-09-15T06:04:44.593Z,2.08
2022-09-15T06:07:14.882Z,1.85
2022-09-15T06:09:45.369Z,1.80
2022-09-15T06:12:17.941Z,1.90
2022-09-15T06:14:50.655Z,2.22
2022-09-15T06:17:22.365Z,1.92
2022-09-15T06:19:52.535Z,1.73
2022-09-15T06:22:22.673Z,2.05
2022-09-15T06:24:53.124Z,1.80
2022-09-15T06:27:23.375Z,1.80
2022-09-15T06:29:53.516Z,2.10
2022-09-15T06:32:23.793Z,2.10
2022-09-15T06:34:54.011Z,1.55
2022-09-15T06:37:24.383Z,1.92
2022-09-15T06:39:54.513Z,2.03
2022-09-15T06:42:24.892Z,2.05
2022-09-15T06:44:55.101Z,2.10
2022-09-15T06:47:25.318Z,1.88
2022-09-15T06:49:55.921Z,1.98
2022-09-15T06:52:26.005Z,2.10
2022-09-15T06:54:56.241Z,1.73
2022-09-15T06:57:26.425Z,1.70
2022-09-15T06:59:56.675Z,1.80
2022-09-15T07:02:26.958Z,1.67
2022-09-15T07:04:57.142Z,1.40
2022-09-15T07:07:27.906Z,1.40
2022-09-15T07:09:58.105Z,1.60
2022-09-15T07:12:29.548Z,1.60
2022-09-15T07:14:59.721Z,1.70
2022-09-15T07:17:29.901Z,1.83
2022-09-15T07:20:00.702Z,1.48
2022-09-15T07:22:30.841Z,1.20
2022-09-15T07:25:00.994Z,1.40
2022-09-15T07:27:31.904Z,1.77
2022-09-15T07:30:02.539Z,1.27
2022-09-15T07:32:33.460Z,1.45
2022-09-15T07:35:03.899Z,1.40
2022-09-15T07:37:34.066Z,1.70
2022-09-15T07:40:04.579Z,1.40
2022-09-15T07:42:35.580Z,1.67
2022-09-15T07:45:06.471Z,1.40
2022-09-15T07:47:36.695Z,1.77
2022-09-15T07:50:07.413Z,1.77
2022-09-15T07:52:37.613Z,1.30
2022-09-15T07:55:09.568Z,1.25
2022-09-15T07:57:39.737Z,1.27
2022-09-15T08:00:10.581Z,1.33
2022-09-15T08:02:41.064Z,1.33
2022-09-15T08:05:11.159Z,1.58
2022-09-15T08:07:41.318Z,1.17
2022-09-15T08:10:11.661Z,1.60
2022-09-15T08:12:42.457Z,1.40
2022-09-15T08:15:12.575Z,1.25
2022-09-15T08:17:42.665Z,1.13
2022-09-15T08:20:13.828Z,1.38
2022-09-15T08:22:45.748Z,1.10
2022-09-15T08:25:15.929Z,1.00
2022-09-15T08:27:46.048Z,1.25
2022-09-15T08:30:18.280Z,1.20
2022-09-15T08:32:49.312Z,0.90
2022-09-15T08:35:20.098Z,1.10
2022-09-15T08:37:50.137Z,1.13
2022-09-15T08:40:24.317Z,0.82
2022-09-15T08:43:01.884Z,1.27
2022-09-15T08:45:56.046Z,1.20
2022-09-15T08:48:31.893Z,1.00
2022-09-15T08:51:12.216Z,0.80
2022-09-15T08:53:50.124Z,0.88
2022-09-15T08:56:21.238Z,1.00
2022-09-15T08:58:51.361Z,1.35
2022-09-15T09:01:39.618Z,1.00
2022-09-15T09:04:19.729Z,1.10
2022-09-15T09:07:16.351Z,1.35
2022-09-15T09:09:57.233Z,1.35
2022-09-15T09:13:13.275Z,0.93
2022-09-15T09:15:58.447Z,1.00
2022-09-15T09:19:01.109Z,1.10
2022-09-15T09:21:37.856Z,1.00
2022-09-15T09:24:24.983Z,1.05
2022-09-15T09:26:55.960Z,1.35
2022-09-15T09:29:40.456Z,1.00
2022-09-15T09:32:43.936Z,1.00
2022-09-15T09:35:21.694Z,1.00
2022-09-15T09:37:52.822Z,0.93
2022-09-15T09:40:23.322Z,0.90
2022-09-15T09:42:54.431Z,0.93
2022-09-15T09:45:24.528Z,0.70
2022-09-15T09:48:02.405Z,1.00
2022-09-15T09:50:43.722Z,1.00
2022-09-15T09:53:28.136Z,0.70
2022-09-15T09:56:26.617Z,0.82
2022-09-15T09:58:56.900Z,0.95
2022-09-15T10:01:27.570Z,0.80
2022-09-15T10:04:18.333Z,0.95
2022-09-15T10:06:49.424Z,0.80
2022-09-15T10:09:19.929Z,1.10
2022-09-15T10:11:54.198Z,1.08
2022-09-15T10:14:30.454Z,1.00
2022-09-15T10:17:06.395Z,0.98
2022-09-15T10:19:55.130Z,0.85
2022-09-15T10:22:28.207Z,1.23
2022-09-15T10:25:04.556Z,1.20
2022-09-15T10:30:15.077Z,1.30
2022-09-15T10:32:45.502Z,0.95
2022-09-15T10:35:20.602Z,1.08
2022-09-15T10:37:53.645Z,1.00
2022-09-15T10:40:43.986Z,0.90
2022-09-15T10:43:14.036Z,1.05
2022-09-15T10:45:49.081Z,0.80
2022-09-15T10:48:48.448Z,1.10
2022-09-15T10:51:50.617Z,1.00
2022-09-15T10:54:50.643Z,0.70
2022-09-15T11:00:22.750Z,0.80
2022-09-15T11:03:25.023Z,1.00
2022-09-15T11:06:17.562Z,0.80
2022-09-15T11:08:56.456Z,0.80
2022-09-15T11:11:52.660Z,0.73
2022-09-15T11:14:43.736Z,1.10
2022-09-15T11:17:35.391Z,1.13
2022-09-15T11:20:20.020Z,0.82
2022-09-15T11:23:22.834Z,0.68
2022-09-15T11:26:13.171Z,1.40
2022-09-15T11:28:54.038Z,1.38
2022-09-15T11:31:48.014Z,0.90
2022-09-15T11:34:30.688Z,0.82
2022-09-15T11:37:10.086Z,0.90
2022-09-15T11:39:53.643Z,1.20
2022-09-15T11:42:36.325Z,0.70
2022-09-15T11:45:17.814Z,0.90
2022-09-15T11:47:52.874Z,1.05
2022-09-15T11:50:25.980Z,1.20
2022-09-15T11:53:16.874Z,1.10
2022-09-15T11:56:00.843Z,1.08
2022-09-15T11:58:33.701Z,0.98
2022-09-15T12:01:25.268Z,0.80
2022-09-15T12:04:04.855Z,1.00
2022-09-15T12:07:14.607Z,0.85
2022-09-15T12:09:45.693Z,1.30
2022-09-15T12:12:20.553Z,1.00
2022-09-15T12:14:53.808Z,1.33
2022-09-15T12:17:41.118Z,0.80
2022-09-15T12:20:23.618Z,0.80
2022-09-15T12:23:03.210Z,0.73
2022-09-15T12:26:02.317Z,0.70
2022-09-15T12:28:52.525Z,1.38
2022-09-15T12:31:37.350Z,0.60
2022-09-15T12:34:25.722Z,1.00
2022-09-15T12:37:09.046Z,1.45
2022-09-15T12:39:47.234Z,0.82
2022-09-15T12:42:23.746Z,0.68
2022-09-15T12:45:12.436Z,0.60
2022-09-15T12:47:50.895Z,0.80
2022-09-15T12:50:36.619Z,0.77
2022-09-15T12:53:14.783Z,0.85
2022-09-15T12:55:57.435Z,0.40
2022-09-15T12:58:38.159Z,0.30
2022-09-15T13:01:26.409Z,0.30
2022-09-15T13:03:59.655Z,0.28
2022-09-15T13:06:37.924Z,0.32
2022-09-15T13:09:28.444Z,0.70
2022-09-15T13:11:58.653Z,0.20
2022-09-15T13:14:42.171Z,0.45
2022-09-15T13:17:25.466Z,0.20
2022-09-15T13:20:00.265Z,0.25
2022-09-15T13:22:37.825Z,0.30
2022-09-15T13:25:11.104Z,0.55
2022-09-15T13:27:45.753Z,0.35
2022-09-15T13:30:22.161Z,0.38
2022-09-15T13:33:19.260Z,0.40
2022-09-15T13:35:52.482Z,0.30
2022-09-15T13:38:31.847Z,0.20
2022-09-15T13:41:14.279Z,0.80
2022-09-15T13:44:03.181Z,0.40
2022-09-15T13:47:02.723Z,0.20
2022-09-15T13:49:59.859Z,0.32
2022-09-15T13:52:59.273Z,0.30
2022-09-15T13:55:33.895Z,0.30
2022-09-15T14:01:05.803Z,0.30
2022-09-15T14:03:49.049Z,0.25
2022-09-15T14:06:30.436Z,0.30
2022-09-15T14:09:13.748Z,0.30
2022-09-15T14:11:47.279Z,0.20
2022-09-15T14:14:50.952Z,0.63
2022-09-15T14:17:28.988Z,0.40
2022-09-15T14:20:01.074Z,1.92
2022-09-15T14:22:33.826Z,0.50
2022-09-15T14:25:14.653Z,0.50
2022-09-15T14:27:50.176Z,0.50
2022-09-15T14:30:25.111Z,0.47
2022-09-15T14:33:00.864Z,0.20
2022-09-15T14:35:38.259Z,0.50
2022-09-15T14:38:25.876Z,0.22
2022-09-15T14:41:01.159Z,0.52
2022-09-15T14:43:37.783Z,0.38
2022-09-15T14:46:20.647Z,0.17
2022-09-15T14:48:53.687Z,0.55
2022-09-15T14:51:33.901Z,0.40
2022-09-15T14:54:07.688Z,0.52
2022-09-15T14:56:42.667Z,0.68
2022-09-15T14:59:30.189Z,0.30
2022-09-15T15:02:20.812Z,0.40
2022-09-15T15:04:59.464Z,0.40
2022-09-15T15:07:32.273Z,0.40
2022-09-15T15:10:06.241Z,0.30
2022-09-15T15:12:41.542Z,0.50
2022-09-15T15:15:16.592Z,0.40
2022-09-15T15:17:54.852Z,0.32
2022-09-15T15:20:33.100Z,0.32
2022-09-15T15:23:26.020Z,0.60
2022-09-15T15:26:27.432Z,0.90
2022-09-15T15:28:57.524Z,0.60
2022-09-15T15:31:33.006Z,0.50
2022-09-15T15:34:06.520Z,0.80
2022-09-15T15:36:36.701Z,0.77
2022-09-15T15:39:19.388Z,0.60
2022-09-15T15:44:27.631Z,0.75
2022-09-15T15:47:01.648Z,0.77
2022-09-15T15:49:32.715Z,0.43
2022-09-15T15:52:03.088Z,0.85
2022-09-15T15:54:34.335Z,0.82
2022-09-15T15:57:21.993Z,0.90
2022-09-15T15:59:58.531Z,0.63
2022-09-15T16:02:28.957Z,0.80
2022-09-15T16:04:59.132Z,0.70
2022-09-15T16:07:33.399Z,0.80
2022-09-15T16:10:04.701Z,0.70
2022-09-15T16:12:35.541Z,0.40
2022-09-15T16:15:32.543Z,0.70
2022-09-15T16:18:02.713Z,0.90
2022-09-15T16:20:33.229Z,0.70
2022-09-15T16:23:03.680Z,0.75
2022-09-15T16:25:42.464Z,0.73
2022-09-15T16:28:12.883Z,0.80
2022-09-15T16:30:43.113Z,0.70
2022-09-15T16:33:18.203Z,0.90
2022-09-15T16:35:56.062Z,0.80
2022-09-15T16:38:28.340Z,1.00
2022-09-15T16:40:58.452Z,0.80
2022-09-15T16:43:28.826Z,0.80
2022-09-15T16:45:58.954Z,0.80
2022-09-15T16:48:29.158Z,1.08
2022-09-15T16:51:20.974Z,1.08
2022-09-15T16:53:51.268Z,1.15
2022-09-15T16:56:21.397Z,2.15
2022-09-15T16:58:58.909Z,1.30
2022-09-15T17:01:30.261Z,1.10
2022-09-15T17:04:01.940Z,1.08
2022-09-15T17:06:32.148Z,1.27
2022-09-15T17:09:02.352Z,0.95
2022-09-15T17:11:32.472Z,0.82
2022-09-15T17:14:02.597Z,1.00
2022-09-15T17:16:32.756Z,0.80
2022-09-15T17:19:02.895Z,0.73
2022-09-15T17:21:33.140Z,1.00
2022-09-15T17:24:03.447Z,0.73
2022-09-15T17:26:33.683Z,0.90
2022-09-15T17:29:03.798Z,0.75
2022-09-15T17:31:34.043Z,1.50
2022-09-15T17:34:04.358Z,0.80
2022-09-15T17:36:36.305Z,0.80
2022-09-15T17:39:06.597Z,0.73
2022-09-15T17:41:38.711Z,1.30
2022-09-15T17:44:11.056Z,1.00
2022-09-15T17:46:41.225Z,0.90
2022-09-15T17:49:11.612Z,0.75
2022-09-15T17:51:41.818Z,0.90
2022-09-15T17:54:13.632Z,1.00
2022-09-15T17:56:43.832Z,1.35
2022-09-15T17:59:16.217Z,1.60
2022-09-15T18:01:46.907Z,2.00
2022-09-15T18:04:17.019Z,3.03
2022-09-15T18:06:47.201Z,2.30
2022-09-15T18:09:17.865Z,1.50
2022-09-15T18:11:48.140Z,1.25
2022-09-15T18:14:18.319Z,1.30
2022-09-15T18:16:48.443Z,1.23
2022-09-15T18:19:18.655Z,0.77
2022-09-15T18:21:53.086Z,1.17
2022-09-15T18:24:23.305Z,0.80
2022-09-15T18:26:54.448Z,0.93
2022-09-15T18:29:24.567Z,1.10
2022-09-15T18:31:54.803Z,1.17
2022-09-15T18:34:25.141Z,0.80
2022-09-15T18:36:55.633Z,1.02
2022-09-15T18:39:26.242Z,1.08
2022-09-15T18:41:56.517Z,1.65
2022-09-15T18:44:26.647Z,1.48
2022-09-15T18:46:56.815Z,1.80
2022-09-15T18:49:26.939Z,2.05
2022-09-15T18:51:57.155Z,2.00
2022-09-15T18:54:27.316Z,1.80
2022-09-15T18:56:58.212Z,1.90
2022-09-15T18:59:29.782Z,1.75
2022-09-15T19:01:59.988Z,1.70
2022-09-15T19:04:32.760Z,1.35
2022-09-15T19:07:05.306Z,1.40
2022-09-15T19:09:36.105Z,1.63
2022-09-15T19:12:06.436Z,1.08
2022-09-15T19:14:36.678Z,1.40
2022-09-15T19:17:06.861Z,1.20
2022-09-15T19:19:37.072Z,1.40
2022-09-15T19:22:07.591Z,1.50
2022-09-15T19:24:37.940Z,1.27
2022-09-15T19:27:09.044Z,2.08
2022-09-15T19:29:39.784Z,1.73
2022-09-15T19:32:13.163Z,1.67
2022-09-15T19:34:43.338Z,1.17
2022-09-15T19:37:18.777Z,1.33
2022-09-15T19:39:50.070Z,0.98
2022-09-15T19:42:20.395Z,1.40
2022-09-15T19:44:50.644Z,2.17
2022-09-15T19:47:20.852Z,1.33
2022-09-15T19:49:54.227Z,1.33
2022-09-15T19:52:24.487Z,1.30
2022-09-15T19:54:55.033Z,1.35
2022-09-15T19:57:25.306Z,1.38
2022-09-15T19:59:57.818Z,1.40
2022-09-15T20:02:28.164Z,1.17
2022-09-15T20:07:48.919Z,1.20
2022-09-15T20:10:19.402Z,1.23
2022-09-15T20:12:49.579Z,1.15
2022-09-15T20:15:19.781Z,1.40
2022-09-15T20:17:50.279Z,1.50
2022-09-15T20:20:20.576Z,1.33
2022-09-15T20:22:50.720Z,1.10
2022-09-15T20:25:21.081Z,1.40
2022-09-15T20:27:52.826Z,1.63
2022-09-15T20:30:23.854Z,1.70
2022-09-15T20:32:54.157Z,1.20
2022-09-15T20:35:24.697Z,1.65
2022-09-15T20:37:54.851Z,1.40
2022-09-15T20:40:26.571Z,1.23
2022-09-15T20:42:56.921Z,1.38
2022-09-15T20:45:27.777Z,1.10
2022-09-15T20:47:57.960Z,1.13
2022-09-15T20:50:28.100Z,1.13
2022-09-15T20:52:58.220Z,1.08
2022-09-15T20:55:30.298Z,1.10
2022-09-15T20:58:00.404Z,1.45
2022-09-15T21:00:33.851Z,1.23
2022-09-15T21:03:04.414Z,1.17
2022-09-15T21:05:34.573Z,1.00
2022-09-15T21:08:05.609Z,0.90
2022-09-15T21:10:35.738Z,1.05
2022-09-15T21:13:07.849Z,1.00
2022-09-15T21:15:38.067Z,1.10
2022-09-15T21:18:08.285Z,1.05
2022-09-15T21:20:38.504Z,1.73
2022-09-15T21:23:09.083Z,1.10
2022-09-15T21:25:39.313Z,1.15
2022-09-15T21:28:10.409Z,1.38
2022-09-15T21:30:40.843Z,0.90
2022-09-15T21:33:11.131Z,1.17
2022-09-15T21:35:42.171Z,1.23
2022-09-15T21:38:12.277Z,1.08
2022-09-15T21:40:47.283Z,1.83
2022-09-15T21:43:17.751Z,1.58
2022-09-15T21:45:48.005Z,1.42
2022-09-15T21:48:18.230Z,1.42
2022-09-15T21:50:52.319Z,1.15
2022-09-15T21:53:22.983Z,0.98
2022-09-15T21:55:53.373Z,1.15
2022-09-15T21:58:26.103Z,1.17
2022-09-15T22:00:56.426Z,1.23
2022-09-15T22:03:26.600Z,1.70
2022-09-15T22:05:57.340Z,1.40
2022-09-15T22:08:27.584Z,1.35
2022-09-15T22:11:01.415Z,1.20
2022-09-15T22:13:32.369Z,1.45
2022-09-15T22:16:04.647Z,1.15
2022-09-15T22:18:40.350Z,1.10
2022-09-15T22:21:19.634Z,1.42
2022-09-15T22:23:51.070Z,1.05
2022-09-15T22:26:24.381Z,1.35
2022-09-15T22:28:55.730Z,1.02
2022-09-15T22:31:27.848Z,1.33
2022-09-15T22:33:59.344Z,1.33
2022-09-15T22:36:33.153Z,1.15
2022-09-15T22:39:05.489Z,1.10
2022-09-15T22:41:40.782Z,1.05
2022-09-15T22:44:23.414Z,0.95
2022-09-15T22:46:56.545Z,1.30
2022-09-15T22:49:29.093Z,1.38
2022-09-15T22:52:02.354Z,0.93
2022-09-15T22:54:35.243Z,1.00
2022-09-15T22:57:08.723Z,1.10
2022-09-15T22:59:40.907Z,0.75
2022-09-15T23:02:13.598Z,0.95
2022-09-15T23:04:46.263Z,1.15
2022-09-15T23:07:16.377Z,0.90
2022-09-15T23:09:46.525Z,1.20
2022-09-15T23:12:16.782Z,1.45
2022-09-15T23:14:46.908Z,1.27
2022-09-15T23:17:17.065Z,1.13
2022-09-15T23:19:47.368Z,1.13
2022-09-15T23:22:17.540Z,1.02
2022-09-15T23:24:47.840Z,1.10
2022-09-15T23:27:17.964Z,1.02
2022-09-15T23:29:48.098Z,1.00
2022-09-15T23:32:18.265Z,1.20
2022-09-15T23:34:49.150Z,1.13
2022-09-15T23:37:19.239Z,1.30
2022-09-15T23:39:49.521Z,0.90
2022-09-15T23:42:19.733Z,0.85
2022-09-15T23:44:50.031Z,1.10
2022-09-15T23:47:20.143Z,0.93
2022-09-15T23:49:50.286Z,1.33
2022-09-15T23:52:20.415Z,1.15
2022-09-15T23:54:50.595Z,0.88
2022-09-15T23:57:20.773Z,1.00
2022-09-15T23:59:50.950Z,0.80
